Cevdet A — 9HTW9 — position and weather

sailwx.info

Track history (hours):
 
Tides and Currents Weather Stations Pressure Air Temp Water Temp Dewpoint Dewpoint Depression Visibility Wind Speed Wind Dir Waves Ship Positions

Cevdet A

Last reported at 2018-May-28 14:37 UTC. Time now 2018-Jun-24 07:20 UTC.
Position N 22°48' E 070°05'.
Warning: this ship's position is 26 days out of date.

Length 129 m; draft 7 m.

Type: Ship (hazmat cat B). MMSI: 249537000.

Date/timePositionNaut miles runAvg speedWind from/ knotsBaromVisibWave heightAir tempDewpointWater temp
2018-May-28 14:37N 22°48' E 070°05'0 0.2
2018-May-28 14:13N 22°48' E 070°05'61 3.6
2018-May-27 21:19N 22°38' E 069°00'3 9.1
2018-May-27 21:00N 22°37' E 068°57'5 9.0
2018-May-27 20:30N 22°33' E 068°54'5 9.3
2018-May-27 19:58N 22°29' E 068°52'5 9.5
2018-May-27 19:29N 22°24' E 068°50'10 9.7
2018-May-27 18:29N 22°15' E 068°47'5 9.6
2018-May-27 18:01N 22°11' E 068°48'5 9.6
2018-May-27 17:27N 22°06' E 068°51'4 9.5
2018-May-27 16:59N 22°02' E 068°52'21 8.9
2018-May-27 14:38N 21°42' E 068°59'2 8.8
2018-May-27 14:24N 21°40' E 069°00'80 8.3
2018-May-27 04:44N 20°40' E 069°57'3 8.4
2018-May-27 04:20N 20°39' E 069°60'3 8.3
2018-May-27 04:00N 20°38' E 070°03'7 8.3
2018-May-27 03:13N 20°36' E 070°09'2 8.2
2018-May-27 02:59N 20°36' E 070°11'5 8.4
2018-May-27 02:21N 20°34' E 070°17'3 8.6
2018-May-27 02:00N 20°33' E 070°20'4 8.7
2018-May-27 01:30N 20°32' E 070°24'4 8.9
2018-May-27 01:00N 20°30' E 070°29'5 9.3
2018-May-27 00:30N 20°29' E 070°33'5 9.4
2018-May-27 00:00N 20°27' E 070°38'5 9.5
2018-May-26 23:31N 20°26' E 070°43'5 9.5
2018-May-26 23:00N 20°25' E 070°48'5 9.4
2018-May-26 22:30N 20°23' E 070°53'5 9.3
2018-May-26 22:00N 20°22' E 070°57'4 9.1
2018-May-26 21:31N 20°20' E 071°02'5 9.1
2018-May-26 21:00N 20°19' E 071°06'5 9.0
2018-May-26 20:30N 20°17' E 071°11'4 9.0
2018-May-26 20:00N 20°16' E 071°16'5 8.9
2018-May-26 19:29N 20°14' E 071°20'4 8.5
2018-May-26 19:00N 20°14' E 071°24'4 8.2
2018-May-26 18:30N 20°13' E 071°29'4 8.0
2018-May-26 18:00N 20°12' E 071°33'4 8.0
2018-May-26 17:30N 20°12' E 071°37'4 7.9
2018-May-26 17:01N 20°11' E 071°41'4 7.8
2018-May-26 16:30N 20°11' E 071°46'4 8.0
2018-May-26 16:00N 20°11' E 071°50'4 8.5
2018-May-26 15:30N 20°11' E 071°54'4 8.6
2018-May-26 15:01N 20°11' E 071°59'4 8.9
2018-May-26 14:31N 20°11' E 072°04'5 9.5
2018-May-26 14:00N 20°13' E 072°08'510.6
2018-May-26 13:30N 20°16' E 072°13'511.1
2018-May-26 13:01N 20°19' E 072°18'611.3
2018-May-26 12:30N 20°22' E 072°23'611.6
2018-May-26 12:00N 20°26' E 072°27'612.3
2018-May-26 11:30N 20°32' E 072°29'612.2
2018-May-26 11:00N 20°38' E 072°31'611.7
2018-May-26 10:30N 20°44' E 072°32'611.1
2018-May-26 10:00N 20°49' E 072°33'510.3
2018-May-26 09:30N 20°54' E 072°34'5 9.8
2018-May-26 09:01N 20°59' E 072°34'4 8.2
2018-May-26 08:31N 21°03' E 072°35'3 5.8
2018-May-26 07:59N 21°05' E 072°38'0 0.5
2018-May-26 07:26N 21°05' E 072°38'0 0.0
2018-May-26 06:56N 21°05' E 072°38'0 0.0
2018-May-26 06:26N 21°05' E 072°38'0 0.0
2018-May-26 05:26N 21°05' E 072°38'0 0.0
2018-May-26 04:56N 21°05' E 072°38'0 0.0
2018-May-26 04:26N 21°05' E 072°38'0 0.0
2018-May-26 03:56N 21°05' E 072°38'0 0.0
2018-May-26 03:26N 21°05' E 072°38'0 0.0
2018-May-26 02:56N 21°05' E 072°38'0 0.0
2018-May-26 02:26N 21°05' E 072°38'0 0.0
2018-May-26 01:50N 21°05' E 072°38'0 0.0
2018-May-26 01:20N 21°05' E 072°38'0 0.0
2018-May-26 00:56N 21°05' E 072°38'0 0.0
2018-May-26 00:26N 21°05' E 072°38'0 0.0
2018-May-25 23:56N 21°05' E 072°38'0 0.0
2018-May-25 23:26N 21°05' E 072°38'0 0.0
2018-May-25 22:56N 21°05' E 072°38'0 0.0
2018-May-25 22:26N 21°05' E 072°38'0 0.0
2018-May-25 22:00N 21°05' E 072°38'1 1.7
2018-May-25 21:30N 21°05' E 072°37'4 7.1
2018-May-25 21:00N 21°03' E 072°34'3 7.0
2018-May-25 20:30N 20°59' E 072°34'510.0
2018-May-25 20:00N 20°55' E 072°37'1 2.9
2018-May-25 19:30N 20°54' E 072°38'0 0.1
2018-May-25 18:50N 20°54' E 072°38'0 0.0
2018-May-25 18:26N 20°54' E 072°38'0 0.0
2018-May-25 17:56N 20°54' E 072°38'0 0.0
2018-May-25 17:26N 20°54' E 072°38'0 0.0
2018-May-25 16:56N 20°54' E 072°38'0 0.0
2018-May-25 16:26N 20°54' E 072°38'0 0.5
2018-May-25 16:01N 20°54' E 072°38'3 6.2
2018-May-25 15:30N 20°51' E 072°36'511.3
2018-May-25 15:01N 20°46' E 072°34'611.0
2018-May-25 14:28N 20°40' E 072°34'510.6
2018-May-25 13:59N 20°36' E 072°32'810.1
2018-May-25 13:14N 20°29' E 072°28'9 9.6
2018-May-25 12:18N 20°21' E 072°24'3 9.3
2018-May-25 12:01N 20°18' E 072°22'48 9.1
2018-May-25 06:45N 20°04' E 071°33'311.3
2018-May-25 06:30N 20°04' E 071°30'611.4
2018-May-25 06:00N 20°04' E 071°24'611.5
2018-May-25 05:31N 20°04' E 071°18'611.6
2018-May-25 05:01N 20°03' E 071°12'1111.5
2018-May-25 04:02N 20°01' E 071°01'111.6
2018-May-25 03:59N 20°01' E 070°60'4311.5
2018-May-25 00:11N 19°45' E 070°17'311.2
2018-May-24 23:55N 19°44' E 070°14'511.2
2018-May-24 23:30N 19°42' E 070°09'1710.9
2018-May-24 21:57N 19°37' E 069°52'510.8
2018-May-24 21:31N 19°35' E 069°47'610.9
2018-May-24 20:58N 19°33' E 069°42'511.1
2018-May-24 20:29N 19°31' E 069°36'511.2
2018-May-24 20:00N 19°29' E 069°31'1011.4
2018-May-24 19:07N 19°25' E 069°21'111.4
2018-May-24 19:00N 19°25' E 069°20'611.4
2018-May-24 18:30N 19°23' E 069°14'611.3
2018-May-24 18:00N 19°21' E 069°08'611.4
2018-May-24 17:30N 19°19' E 069°03'711.2
2018-May-24 16:52N 19°16' E 068°56'511.0
2018-May-24 16:27N 19°15' E 068°51'611.2
2018-May-24 15:55N 19°13' E 068°45'911.0
2018-May-24 15:07N 19°10' E 068°37'110.7
2018-May-24 15:00N 19°09' E 068°35'510.8
2018-May-24 14:31N 19°07' E 068°30'510.9
2018-May-24 14:01N 19°05' E 068°25'510.9
2018-May-24 13:30N 19°03' E 068°19'5310.7
2018-May-24 08:34N 18°44' E 067°27'110.6
2018-May-24 08:30N 18°44' E 067°26'1710.7
2018-May-24 06:55N 18°39' E 067°09'1911.2
2018-May-24 05:14N 18°32' E 066°51'311.5
2018-May-24 05:00N 18°31' E 066°48'611.2
2018-May-24 04:30N 18°29' E 066°43'511.0
2018-May-24 04:01N 18°27' E 066°37'1310.7
2018-May-24 02:46N 18°23' E 066°24'310.8
2018-May-24 02:27N 18°22' E 066°21'610.9
2018-May-24 01:53N 18°19' E 066°14'511.0
2018-May-24 01:23N 18°17' E 066°09'  
Track history (hours):
 
Tides and Currents Weather Stations Pressure Air Temp Water Temp Dewpoint Dewpoint Depression Visibility Wind Speed Wind Dir Waves Ship Positions

Cevdet A

Last reported at 2018-May-28 14:37 UTC. Time now 2018-Jun-24 07:21 UTC.
Position N 22°48' E 070°05'.
Warning: this ship's position is 26 days out of date.

Length 129 m; draft 7 m.

Type: Ship (hazmat cat B). MMSI: 249537000.

Date/timePositionNaut miles runAvg speedWind from/ knotsBaromVisibWave heightAir tempDewpointWater temp
2018-May-28 14:37N 22°48' E 070°05'0 0.2
2018-May-28 14:13N 22°48' E 070°05'61 3.6
2018-May-27 21:19N 22°38' E 069°00'3 9.1
2018-May-27 21:00N 22°37' E 068°57'5 9.0
2018-May-27 20:30N 22°33' E 068°54'5 9.3
2018-May-27 19:58N 22°29' E 068°52'5 9.5
2018-May-27 19:29N 22°24' E 068°50'10 9.7
2018-May-27 18:29N 22°15' E 068°47'5 9.6
2018-May-27 18:01N 22°11' E 068°48'5 9.6
2018-May-27 17:27N 22°06' E 068°51'4 9.5
2018-May-27 16:59N 22°02' E 068°52'21 8.9
2018-May-27 14:38N 21°42' E 068°59'2 8.8
2018-May-27 14:24N 21°40' E 069°00'80 8.3
2018-May-27 04:44N 20°40' E 069°57'3 8.4
2018-May-27 04:20N 20°39' E 069°60'3 8.3
2018-May-27 04:00N 20°38' E 070°03'7 8.3
2018-May-27 03:13N 20°36' E 070°09'2 8.2
2018-May-27 02:59N 20°36' E 070°11'5 8.4
2018-May-27 02:21N 20°34' E 070°17'3 8.6
2018-May-27 02:00N 20°33' E 070°20'4 8.7
2018-May-27 01:30N 20°32' E 070°24'4 8.9
2018-May-27 01:00N 20°30' E 070°29'5 9.3
2018-May-27 00:30N 20°29' E 070°33'5 9.4
2018-May-27 00:00N 20°27' E 070°38'5 9.5
2018-May-26 23:31N 20°26' E 070°43'5 9.5
2018-May-26 23:00N 20°25' E 070°48'5 9.4
2018-May-26 22:30N 20°23' E 070°53'5 9.3
2018-May-26 22:00N 20°22' E 070°57'4 9.1
2018-May-26 21:31N 20°20' E 071°02'5 9.1
2018-May-26 21:00N 20°19' E 071°06'5 9.0
2018-May-26 20:30N 20°17' E 071°11'4 9.0
2018-May-26 20:00N 20°16' E 071°16'5 8.9
2018-May-26 19:29N 20°14' E 071°20'4 8.5
2018-May-26 19:00N 20°14' E 071°24'4 8.2
2018-May-26 18:30N 20°13' E 071°29'4 8.0
2018-May-26 18:00N 20°12' E 071°33'4 8.0
2018-May-26 17:30N 20°12' E 071°37'4 7.9
2018-May-26 17:01N 20°11' E 071°41'4 7.8
2018-May-26 16:30N 20°11' E 071°46'4 8.0
2018-May-26 16:00N 20°11' E 071°50'4 8.5
2018-May-26 15:30N 20°11' E 071°54'4 8.6
2018-May-26 15:01N 20°11' E 071°59'4 8.9
2018-May-26 14:31N 20°11' E 072°04'5 9.5
2018-May-26 14:00N 20°13' E 072°08'510.6
2018-May-26 13:30N 20°16' E 072°13'511.1
2018-May-26 13:01N 20°19' E 072°18'611.3
2018-May-26 12:30N 20°22' E 072°23'611.6
2018-May-26 12:00N 20°26' E 072°27'612.3
2018-May-26 11:30N 20°32' E 072°29'612.2
2018-May-26 11:00N 20°38' E 072°31'611.7
2018-May-26 10:30N 20°44' E 072°32'611.1
2018-May-26 10:00N 20°49' E 072°33'510.3
2018-May-26 09:30N 20°54' E 072°34'5 9.8
2018-May-26 09:01N 20°59' E 072°34'4 8.2
2018-May-26 08:31N 21°03' E 072°35'3 5.8
2018-May-26 07:59N 21°05' E 072°38'0 0.5
2018-May-26 07:26N 21°05' E 072°38'0 0.0
2018-May-26 06:56N 21°05' E 072°38'0 0.0
2018-May-26 06:26N 21°05' E 072°38'0 0.0
2018-May-26 05:26N 21°05' E 072°38'0 0.0
2018-May-26 04:56N 21°05' E 072°38'0 0.0
2018-May-26 04:26N 21°05' E 072°38'0 0.0
2018-May-26 03:56N 21°05' E 072°38'0 0.0
2018-May-26 03:26N 21°05' E 072°38'0 0.0
2018-May-26 02:56N 21°05' E 072°38'0 0.0
2018-May-26 02:26N 21°05' E 072°38'0 0.0
2018-May-26 01:50N 21°05' E 072°38'0 0.0
2018-May-26 01:20N 21°05' E 072°38'0 0.0
2018-May-26 00:56N 21°05' E 072°38'0 0.0
2018-May-26 00:26N 21°05' E 072°38'0 0.0
2018-May-25 23:56N 21°05' E 072°38'0 0.0
2018-May-25 23:26N 21°05' E 072°38'0 0.0
2018-May-25 22:56N 21°05' E 072°38'0 0.0
2018-May-25 22:26N 21°05' E 072°38'0 0.0
2018-May-25 22:00N 21°05' E 072°38'1 1.7
2018-May-25 21:30N 21°05' E 072°37'4 7.1
2018-May-25 21:00N 21°03' E 072°34'3 7.0
2018-May-25 20:30N 20°59' E 072°34'510.0
2018-May-25 20:00N 20°55' E 072°37'1 2.9
2018-May-25 19:30N 20°54' E 072°38'0 0.1
2018-May-25 18:50N 20°54' E 072°38'0 0.0
2018-May-25 18:26N 20°54' E 072°38'0 0.0
2018-May-25 17:56N 20°54' E 072°38'0 0.0
2018-May-25 17:26N 20°54' E 072°38'0 0.0
2018-May-25 16:56N 20°54' E 072°38'0 0.0
2018-May-25 16:26N 20°54' E 072°38'0 0.5
2018-May-25 16:01N 20°54' E 072°38'3 6.2
2018-May-25 15:30N 20°51' E 072°36'511.3
2018-May-25 15:01N 20°46' E 072°34'611.0
2018-May-25 14:28N 20°40' E 072°34'510.6
2018-May-25 13:59N 20°36' E 072°32'810.1
2018-May-25 13:14N 20°29' E 072°28'9 9.6
2018-May-25 12:18N 20°21' E 072°24'3 9.3
2018-May-25 12:01N 20°18' E 072°22'48 9.1
2018-May-25 06:45N 20°04' E 071°33'311.3
2018-May-25 06:30N 20°04' E 071°30'611.4
2018-May-25 06:00N 20°04' E 071°24'611.5
2018-May-25 05:31N 20°04' E 071°18'611.6
2018-May-25 05:01N 20°03' E 071°12'1111.5
2018-May-25 04:02N 20°01' E 071°01'111.6
2018-May-25 03:59N 20°01' E 070°60'4311.5
2018-May-25 00:11N 19°45' E 070°17'311.2
2018-May-24 23:55N 19°44' E 070°14'511.2
2018-May-24 23:30N 19°42' E 070°09'1710.9
2018-May-24 21:57N 19°37' E 069°52'510.8
2018-May-24 21:31N 19°35' E 069°47'610.9
2018-May-24 20:58N 19°33' E 069°42'511.1
2018-May-24 20:29N 19°31' E 069°36'511.2
2018-May-24 20:00N 19°29' E 069°31'1011.4
2018-May-24 19:07N 19°25' E 069°21'111.4
2018-May-24 19:00N 19°25' E 069°20'611.4
2018-May-24 18:30N 19°23' E 069°14'611.3
2018-May-24 18:00N 19°21' E 069°08'611.4
2018-May-24 17:30N 19°19' E 069°03'711.2
2018-May-24 16:52N 19°16' E 068°56'511.0
2018-May-24 16:27N 19°15' E 068°51'611.2
2018-May-24 15:55N 19°13' E 068°45'911.0
2018-May-24 15:07N 19°10' E 068°37'110.7
2018-May-24 15:00N 19°09' E 068°35'510.8
2018-May-24 14:31N 19°07' E 068°30'510.9
2018-May-24 14:01N 19°05' E 068°25'510.9
2018-May-24 13:30N 19°03' E 068°19'5310.7
2018-May-24 08:34N 18°44' E 067°27'110.6
2018-May-24 08:30N 18°44' E 067°26'1710.7
2018-May-24 06:55N 18°39' E 067°09'1911.2
2018-May-24 05:14N 18°32' E 066°51'311.5
2018-May-24 05:00N 18°31' E 066°48'611.2
2018-May-24 04:30N 18°29' E 066°43'511.0
2018-May-24 04:01N 18°27' E 066°37'1310.7
2018-May-24 02:46N 18°23' E 066°24'310.8
2018-May-24 02:27N 18°22' E 066°21'610.9
2018-May-24 01:53N 18°19' E 066°14'511.0
2018-May-24 01:23N 18°17' E 066°09'  

Dump ship's entire track history